createdAt,value
2023-05-06T00:01:14.953Z,10.90
2023-05-06T00:03:42.123Z,13.30
2023-05-06T00:06:09.229Z,13.02
2023-05-06T00:08:36.262Z,10.45
2023-05-06T00:11:03.059Z,9.93
2023-05-06T00:13:29.775Z,9.43
2023-05-06T00:15:56.672Z,13.40
2023-05-06T00:18:23.795Z,10.65
2023-05-06T00:20:50.595Z,10.02
2023-05-06T00:23:17.259Z,9.77
2023-05-06T00:25:43.971Z,11.85
2023-05-06T00:28:10.654Z,13.20
2023-05-06T00:30:37.387Z,10.90
2023-05-06T00:33:04.329Z,11.23
2023-05-06T00:35:31.192Z,11.23
2023-05-06T00:38:08.959Z,11.93
2023-05-06T00:40:36.276Z,10.15
2023-05-06T00:43:03.770Z,12.40
2023-05-06T00:45:30.612Z,11.93
2023-05-06T00:47:58.218Z,11.48
2023-05-06T00:50:25.836Z,10.63
2023-05-06T00:52:54.576Z,10.70
2023-05-06T00:55:21.987Z,9.98
2023-05-06T00:57:51.886Z,12.10
2023-05-06T01:00:20.350Z,11.23
2023-05-06T01:02:48.379Z,13.65
2023-05-06T01:05:22.305Z,9.88
2023-05-06T01:08:15.165Z,9.27
2023-05-06T01:11:02.583Z,8.02
2023-05-06T01:13:52.727Z,9.30
2023-05-06T01:16:21.495Z,9.82
2023-05-06T01:18:50.753Z,8.57
2023-05-06T01:21:19.416Z,9.48
2023-05-06T01:23:58.048Z,10.07
2023-05-06T01:26:25.684Z,9.20
2023-05-06T01:28:53.222Z,9.25
2023-05-06T01:31:27.073Z,10.23
2023-05-06T01:34:33.777Z,9.07
2023-05-06T01:37:30.135Z,9.30
2023-05-06T01:39:59.155Z,8.65
2023-05-06T01:42:27.266Z,8.95
2023-05-06T01:44:55.821Z,8.68
2023-05-06T01:47:22.618Z,8.55
2023-05-06T01:49:49.448Z,6.88
2023-05-06T01:52:16.547Z,9.05
2023-05-06T01:54:44.427Z,8.43
2023-05-06T01:57:11.110Z,6.90
2023-05-06T01:59:37.883Z,9.70
2023-05-06T08:08:28.059Z,6.75
2023-05-06T08:10:56.023Z,5.88
2023-05-06T08:13:22.869Z,6.38
2023-05-06T08:15:49.712Z,5.78
2023-05-06T08:18:22.400Z,5.47
2023-05-06T08:20:51.161Z,6.47
2023-05-06T08:23:17.895Z,6.35
2023-05-06T08:25:44.642Z,6.63
2023-05-06T08:28:11.388Z,6.03
2023-05-06T08:30:38.159Z,4.88
2023-05-06T08:33:04.941Z,5.93
2023-05-06T08:35:31.699Z,5.90
2023-05-06T08:37:58.466Z,5.47
2023-05-06T08:40:26.962Z,5.18
2023-05-06T08:42:56.035Z,5.28
2023-05-06T08:45:23.390Z,5.75
2023-05-06T08:47:50.342Z,6.72
2023-05-06T08:50:17.146Z,6.78
2023-05-06T08:52:43.915Z,8.02
2023-05-06T08:55:11.551Z,6.97
2023-05-06T08:57:38.569Z,5.22
2023-05-06T09:00:06.871Z,6.47
2023-05-06T09:02:33.701Z,4.47
2023-05-06T09:05:00.985Z,5.50
2023-05-06T09:07:27.737Z,7.03
2023-05-06T09:09:54.503Z,5.38
2023-05-06T09:12:21.272Z,3.53
2023-05-06T09:14:51.311Z,3.83
2023-05-06T09:17:28.017Z,2.88
2023-05-06T09:19:59.758Z,3.55
2023-05-06T09:22:28.605Z,3.28
2023-05-06T09:24:56.986Z,3.22
2023-05-06T09:27:33.293Z,5.20
2023-05-06T09:30:07.227Z,3.25
2023-05-06T09:32:37.337Z,3.17
2023-05-06T09:35:06.969Z,2.70
2023-05-06T09:37:33.862Z,2.40
2023-05-06T09:40:01.189Z,2.30
2023-05-06T09:42:31.055Z,2.50
2023-05-06T09:45:01.886Z,2.30
2023-05-06T09:47:35.210Z,2.20
2023-05-06T09:50:03.361Z,2.40
2023-05-06T09:52:31.386Z,2.35
2023-05-06T09:54:58.579Z,2.15
2023-05-06T09:57:26.232Z,2.00
2023-05-06T09:59:54.356Z,2.00
2023-05-06T10:02:23.658Z,2.50
2023-05-06T10:04:51.643Z,1.58
2023-05-06T10:07:23.508Z,1.23
2023-05-06T10:09:51.429Z,1.50
2023-05-06T10:12:19.211Z,2.05
2023-05-06T10:14:46.289Z,1.50
2023-05-06T10:17:13.845Z,1.67
2023-05-06T10:19:45.600Z,1.50
2023-05-06T10:22:18.338Z,2.22
2023-05-06T10:24:59.344Z,1.45
2023-05-06T10:27:27.367Z,1.20
2023-05-06T10:29:59.517Z,1.30
2023-05-06T10:32:30.605Z,2.08
2023-05-06T10:35:08.539Z,1.80
2023-05-06T10:37:35.949Z,2.00
2023-05-06T10:40:04.651Z,1.25
2023-05-06T10:42:35.557Z,1.40
2023-05-06T10:45:04.187Z,1.63
2023-05-06T10:47:56.375Z,1.35
2023-05-06T10:50:24.295Z,1.40
2023-05-06T10:52:57.015Z,1.90
2023-05-06T10:55:34.869Z,1.50
2023-05-06T10:58:16.012Z,1.27
2023-05-06T11:00:55.384Z,1.42
2023-05-06T11:03:24.353Z,1.48
2023-05-06T11:05:52.201Z,1.67
2023-05-06T11:08:24.790Z,1.48
2023-05-06T11:10:55.173Z,1.35
2023-05-06T11:13:27.728Z,1.58
2023-05-06T11:15:56.459Z,1.48
2023-05-06T11:18:34.001Z,1.67
2023-05-06T11:21:03.344Z,1.60
2023-05-06T11:23:42.843Z,1.20
2023-05-06T11:26:10.594Z,1.45
2023-05-06T11:28:38.632Z,1.25
2023-05-06T11:31:05.944Z,1.45
2023-05-06T11:33:34.475Z,1.10
2023-05-06T11:36:02.192Z,1.42
2023-05-06T11:38:46.225Z,1.42
2023-05-06T11:41:13.720Z,1.30
2023-05-06T11:43:40.457Z,1.15
2023-05-06T11:46:07.363Z,1.40
2023-05-06T11:48:34.151Z,1.15
2023-05-06T11:51:00.812Z,1.27
2023-05-06T11:53:27.493Z,1.40
2023-05-06T11:55:54.465Z,1.20
2023-05-06T11:58:26.539Z,1.15
2023-05-06T12:00:57.700Z,1.60
2023-05-06T12:03:26.224Z,1.75
2023-05-06T12:05:53.384Z,2.00
2023-05-06T12:08:27.944Z,1.58
2023-05-06T12:11:00.905Z,1.30
2023-05-06T12:13:28.878Z,2.45
2023-05-06T12:15:56.551Z,1.52
2023-05-06T12:18:24.171Z,1.65
2023-05-06T12:20:54.663Z,2.15
2023-05-06T12:23:24.570Z,1.67
2023-05-06T12:26:09.164Z,1.83
2023-05-06T12:28:37.110Z,1.15
2023-05-06T12:31:20.093Z,1.20
2023-05-06T12:33:50.972Z,1.73
2023-05-06T12:36:18.656Z,1.55
2023-05-06T12:38:57.269Z,2.47
2023-05-06T12:41:35.501Z,2.95
2023-05-06T12:44:02.184Z,2.08
2023-05-06T12:46:28.983Z,1.52
2023-05-06T12:49:00.330Z,1.40
2023-05-06T12:53:54.264Z,1.05
2023-05-06T12:56:22.142Z,1.40
2023-05-06T12:59:03.015Z,1.23
2023-05-06T13:01:30.030Z,1.40
2023-05-06T13:03:59.412Z,1.15
2023-05-06T13:06:26.174Z,1.05
2023-05-06T13:08:52.924Z,1.10
2023-05-06T13:11:21.491Z,1.38
2023-05-06T13:13:48.517Z,0.95
2023-05-06T13:16:16.069Z,1.33
2023-05-06T13:18:42.856Z,0.80
2023-05-06T13:21:09.715Z,1.00
2023-05-06T13:23:38.088Z,0.70
2023-05-06T13:26:06.007Z,1.05
2023-05-06T13:28:35.263Z,0.88
2023-05-06T13:31:02.266Z,1.00
2023-05-06T13:33:29.077Z,1.08
2023-05-06T13:35:55.954Z,1.08
2023-05-06T13:38:22.921Z,0.90
2023-05-06T13:40:52.132Z,1.58
2023-05-06T13:43:22.108Z,1.17
2023-05-06T13:45:48.813Z,1.73
2023-05-06T13:48:15.756Z,0.93
2023-05-06T13:50:48.925Z,1.00
2023-05-06T13:53:15.863Z,1.10
2023-05-06T13:55:43.394Z,1.15
2023-05-06T13:58:10.953Z,1.02
2023-05-06T14:00:37.779Z,1.45
2023-05-06T14:03:04.552Z,1.10
2023-05-06T14:05:32.427Z,1.20
2023-05-06T14:07:59.192Z,1.60
2023-05-06T14:10:26.022Z,1.33
2023-05-06T14:12:52.971Z,1.17
2023-05-06T14:15:19.941Z,1.17
2023-05-06T14:17:46.657Z,1.67
2023-05-06T14:20:13.431Z,1.00
2023-05-06T14:22:41.437Z,0.95
2023-05-06T14:25:09.416Z,0.95
2023-05-06T14:27:36.816Z,0.85
2023-05-06T14:30:09.338Z,1.15
2023-05-06T14:32:36.493Z,1.05
2023-05-06T14:35:03.342Z,1.20
2023-05-06T14:37:30.081Z,1.00
2023-05-06T14:39:57.485Z,1.40
2023-05-06T14:42:24.259Z,1.13
2023-05-06T14:44:51.020Z,1.20
2023-05-06T14:47:17.878Z,1.40
2023-05-06T14:49:44.581Z,1.67
2023-05-06T14:52:11.297Z,1.10
2023-05-06T14:54:42.258Z,1.20
2023-05-06T14:57:09.845Z,1.30
2023-05-06T14:59:37.034Z,1.40
2023-05-06T15:02:06.803Z,1.30
2023-05-06T15:04:33.509Z,1.10
2023-05-06T15:07:00.426Z,0.95
2023-05-06T15:09:27.153Z,1.50
2023-05-06T15:11:53.953Z,1.13
2023-05-06T15:14:20.671Z,1.35
2023-05-06T15:16:47.425Z,1.30
2023-05-06T15:19:16.865Z,1.45
2023-05-06T15:21:44.001Z,1.67
2023-05-06T15:24:10.724Z,1.27
2023-05-06T15:26:37.474Z,1.63
2023-05-06T15:29:05.264Z,1.70
2023-05-06T15:31:32.460Z,1.30
2023-05-06T15:34:00.718Z,1.48
2023-05-06T15:36:27.714Z,1.38
2023-05-06T15:39:00.099Z,1.50
2023-05-06T15:41:32.651Z,1.30
2023-05-06T15:44:01.623Z,1.77
2023-05-06T15:46:30.038Z,1.40
2023-05-06T15:49:17.445Z,1.42
2023-05-06T15:51:44.049Z,1.10
2023-05-06T15:54:10.848Z,0.90
2023-05-06T15:56:41.109Z,0.90
2023-05-06T15:59:08.595Z,1.98
2023-05-06T16:01:54.041Z,1.10
2023-05-06T16:04:23.033Z,1.13
2023-05-06T16:06:50.139Z,1.58
2023-05-06T16:09:16.842Z,1.45
2023-05-06T16:11:43.641Z,1.42
2023-05-06T16:14:10.509Z,2.47
2023-05-06T16:16:37.391Z,1.95
2023-05-06T16:19:04.607Z,2.05
2023-05-06T16:21:31.693Z,1.88
2023-05-06T16:23:58.427Z,2.08
2023-05-06T16:26:25.187Z,1.95
2023-05-06T16:28:53.606Z,1.70
2023-05-06T16:31:20.504Z,1.88
2023-05-06T16:33:47.300Z,1.20
2023-05-06T16:36:14.053Z,1.27
2023-05-06T16:38:40.847Z,0.93
2023-05-06T16:41:07.553Z,0.95
2023-05-06T16:43:34.720Z,1.30
2023-05-06T16:46:01.514Z,1.48
2023-05-06T16:48:28.814Z,1.20
2023-05-06T16:50:55.639Z,1.10
2023-05-06T16:53:22.480Z,1.38
2023-05-06T16:55:49.882Z,1.02
2023-05-06T16:58:16.691Z,1.00
2023-05-06T17:00:44.079Z,1.10
2023-05-06T17:03:11.566Z,0.90
2023-05-06T17:05:38.578Z,1.00
2023-05-06T17:08:05.729Z,1.08
2023-05-06T17:10:32.451Z,1.20
2023-05-06T17:12:59.552Z,0.95
2023-05-06T17:15:26.464Z,1.10
2023-05-06T17:17:53.318Z,1.23
2023-05-06T17:20:20.334Z,1.30
2023-05-06T17:22:47.681Z,1.08
2023-05-06T17:25:14.888Z,1.40
2023-05-06T17:27:41.892Z,0.75
2023-05-06T17:30:12.060Z,1.20
2023-05-06T17:32:39.279Z,1.30
2023-05-06T17:35:07.367Z,1.10
2023-05-06T17:37:34.668Z,1.15
2023-05-06T17:40:02.019Z,1.40
2023-05-06T17:42:29.756Z,1.50
2023-05-06T17:44:56.508Z,1.40
2023-05-06T17:47:23.287Z,1.55
2023-05-06T17:49:53.815Z,2.22
2023-05-06T17:52:20.840Z,1.33
2023-05-06T17:55:05.764Z,1.35
2023-05-06T17:57:37.632Z,1.27
2023-05-06T18:00:05.501Z,1.25
2023-05-06T18:02:38.856Z,1.80
2023-05-06T18:05:06.488Z,1.20
2023-05-06T18:07:35.580Z,1.15
2023-05-06T18:10:02.425Z,1.17
2023-05-06T18:12:29.173Z,1.13
2023-05-06T18:14:56.829Z,1.10
2023-05-06T18:17:23.781Z,1.27
2023-05-06T18:19:50.655Z,1.40
2023-05-06T18:22:17.459Z,1.10
2023-05-06T18:24:44.389Z,1.20
2023-05-06T18:27:12.766Z,1.30
2023-05-06T18:29:39.908Z,1.48
2023-05-06T18:32:06.772Z,1.15
2023-05-06T18:34:34.503Z,1.30
2023-05-06T18:37:01.304Z,1.30
2023-05-06T18:39:27.981Z,1.17
2023-05-06T18:41:54.710Z,1.17
2023-05-06T18:44:21.432Z,1.13
2023-05-06T18:46:48.189Z,0.95
2023-05-06T18:49:14.937Z,1.15
2023-05-06T18:51:41.711Z,1.17
2023-05-06T18:54:08.502Z,1.10
2023-05-06T18:56:36.715Z,1.20
2023-05-06T18:59:03.631Z,1.70
2023-05-06T19:01:30.433Z,1.10
2023-05-06T19:03:57.468Z,1.25
2023-05-06T19:06:24.219Z,1.40
2023-05-06T19:08:51.053Z,1.13
2023-05-06T19:11:21.238Z,1.40
2023-05-06T19:13:48.008Z,1.58
2023-05-06T19:16:14.916Z,1.48
2023-05-06T19:18:41.868Z,1.45
2023-05-06T19:21:12.314Z,1.15
2023-05-06T19:23:39.397Z,1.20
2023-05-06T19:26:07.095Z,1.40
2023-05-06T19:28:34.316Z,1.48
2023-05-06T19:31:01.563Z,1.20
2023-05-06T19:33:28.633Z,1.75
2023-05-06T19:35:55.514Z,1.10
2023-05-06T19:38:22.380Z,1.00
2023-05-06T19:40:49.140Z,1.15
2023-05-06T19:43:15.989Z,1.30
2023-05-06T19:45:42.841Z,1.50
2023-05-06T19:48:09.532Z,1.40
2023-05-06T19:50:36.730Z,1.33
2023-05-06T19:53:03.749Z,1.55
2023-05-06T19:55:31.218Z,1.30
2023-05-06T19:57:58.548Z,1.60
2023-05-06T20:00:27.952Z,1.67
2023-05-06T20:02:59.561Z,1.48
2023-05-06T20:05:30.920Z,1.70
2023-05-06T20:07:59.853Z,1.77
2023-05-06T20:10:28.101Z,1.65
2023-05-06T20:12:57.341Z,2.03
2023-05-06T20:15:24.899Z,2.10
2023-05-06T20:17:51.877Z,1.60
2023-05-06T20:20:19.373Z,1.48
2023-05-06T20:22:46.219Z,1.75
2023-05-06T20:25:18.758Z,1.77
2023-05-06T20:27:46.369Z,1.70
2023-05-06T20:30:13.302Z,2.67
2023-05-06T20:32:40.748Z,1.58
2023-05-06T20:35:08.160Z,2.75
2023-05-06T20:37:36.247Z,2.58
2023-05-06T20:40:05.667Z,1.98
2023-05-06T20:42:32.611Z,2.80
2023-05-06T20:45:00.076Z,2.97
2023-05-06T20:47:27.440Z,3.90
2023-05-06T20:49:54.652Z,3.10
2023-05-06T20:52:21.824Z,3.60
2023-05-06T20:54:49.147Z,3.45
2023-05-06T20:57:17.770Z,3.80
2023-05-06T20:59:44.686Z,3.97
2023-05-06T21:02:11.619Z,3.22
2023-05-06T21:04:38.496Z,3.40
2023-05-06T21:07:05.499Z,3.22
2023-05-06T21:09:32.342Z,2.70
2023-05-06T21:11:59.267Z,3.00
2023-05-06T21:14:27.049Z,3.00
2023-05-06T21:16:54.172Z,3.28
2023-05-06T21:19:21.007Z,3.97
2023-05-06T21:21:48.357Z,1.85
2023-05-06T21:24:15.172Z,3.03
2023-05-06T21:26:41.929Z,3.55
2023-05-06T21:29:08.738Z,3.17
2023-05-06T21:31:35.595Z,3.50
2023-05-06T21:34:04.078Z,2.97
2023-05-06T21:36:31.183Z,2.75
2023-05-06T21:39:10.884Z,2.75
2023-05-06T21:41:38.321Z,2.80
2023-05-06T21:44:07.348Z,2.38
2023-05-06T21:46:34.867Z,3.00
2023-05-06T21:49:01.958Z,2.92
2023-05-06T21:51:35.139Z,2.40
2023-05-06T21:54:02.874Z,2.58
2023-05-06T21:56:29.919Z,2.80
2023-05-06T21:58:56.715Z,2.70
2023-05-06T22:01:29.075Z,2.42
2023-05-06T22:03:56.140Z,2.40
2023-05-06T22:06:23.353Z,2.47
2023-05-06T22:08:50.349Z,2.20
2023-05-06T22:11:17.298Z,2.80
2023-05-06T22:13:44.076Z,2.00
2023-05-06T22:16:10.997Z,2.58
2023-05-06T22:18:41.194Z,2.58
2023-05-06T22:21:08.739Z,2.45
2023-05-06T22:23:35.677Z,2.10
2023-05-06T22:26:02.686Z,2.70
2023-05-06T22:28:29.521Z,2.88
2023-05-06T22:30:56.434Z,2.42
2023-05-06T22:33:23.200Z,2.55
2023-05-06T22:35:49.999Z,2.90
2023-05-06T22:38:16.756Z,2.78
2023-05-06T22:40:43.501Z,2.20
2023-05-06T22:43:10.294Z,2.92
2023-05-06T22:45:37.324Z,2.60
2023-05-06T22:48:05.122Z,2.70
2023-05-06T22:50:31.870Z,2.90
2023-05-06T22:53:00.044Z,3.50
2023-05-06T22:55:29.772Z,2.80
2023-05-06T22:57:56.576Z,2.60
2023-05-06T23:00:24.035Z,3.22
2023-05-06T23:02:50.825Z,2.70
2023-05-06T23:05:17.587Z,2.88
2023-05-06T23:07:44.283Z,3.20
2023-05-06T23:10:11.157Z,2.72
2023-05-06T23:12:38.012Z,2.83
2023-05-06T23:15:06.230Z,3.13
2023-05-06T23:17:33.035Z,2.90
2023-05-06T23:20:00.865Z,2.70
2023-05-06T23:22:28.117Z,2.25
2023-05-06T23:24:55.779Z,2.22
2023-05-06T23:27:22.539Z,3.17
2023-05-06T23:29:49.294Z,2.67
2023-05-06T23:32:15.980Z,3.05
2023-05-06T23:34:42.758Z,2.15
2023-05-06T23:37:11.463Z,3.10
2023-05-06T23:39:38.168Z,2.72
2023-05-06T23:42:04.880Z,2.88
2023-05-06T23:44:31.688Z,2.70
2023-05-06T23:46:58.508Z,3.03
2023-05-06T23:49:25.219Z,3.13
2023-05-06T23:51:51.973Z,2.38
2023-05-06T23:54:18.778Z,2.90
2023-05-06T23:56:45.490Z,2.35
2023-05-06T23:59:12.271Z,2.90
